Manyberries, Canada
Current Conditions -  °F | °C
As of 8:00 AM on Saturday 25 Oct 2014 (Local Time) from CYXH Reporting Station
Overcast Overcast  
Wind Chill: 37°   Ceiling: 9500
Heat Index: 37°   Visibility: 30mi
Dew Point: 32°   Wind: 3mph
Humidity: 81%   Direction: 120°ESE
Pressure: 30.01"   Gusts: NA
Location:  49.4°N, 110.7°W
Report Text: CYXH 251400Z 12003KT 30SM BKN095 OVC290 03/M00 A3001 RMK AC7CI1 SLP183
Loading
Personal Weather Stations






























Interactive Weather Map
Tropical Storm Tracking
New forecast layout! Learn more

10-Day Weather Forecast

Advertisements
Track Severe Weather on mobile